createdAt,value
2023-04-24T00:04:18.742Z,98271.36
2023-04-24T00:09:26.586Z,98266.02
2023-04-24T00:14:34.176Z,98260.42
2023-04-24T00:19:41.855Z,98261.66
2023-04-24T00:24:49.507Z,98256.10
2023-04-24T00:29:57.061Z,98256.80
2023-04-24T00:35:05.034Z,98251.14
2023-04-24T00:40:14.212Z,98248.23
2023-04-24T00:45:22.526Z,98242.64
2023-04-24T00:50:30.842Z,98242.84
2023-04-24T00:55:39.628Z,98236.13
2023-04-24T01:00:49.128Z,98233.20
2023-04-24T01:05:57.248Z,98231.67
2023-04-24T01:11:08.167Z,98229.27
2023-04-24T01:16:16.198Z,98228.91
2023-04-24T01:21:26.466Z,98226.40
2023-04-24T01:26:34.428Z,98222.38
2023-04-24T01:31:42.312Z,98218.30
2023-04-24T01:36:50.589Z,98215.00
2023-04-24T01:41:58.532Z,98213.07
2023-04-24T01:47:07.979Z,98205.05
2023-04-24T01:52:15.602Z,98200.74
2023-04-24T01:57:24.052Z,98194.88
2023-04-24T02:02:31.823Z,98192.79
2023-04-24T02:07:39.811Z,98185.30
2023-04-24T02:12:47.275Z,98178.86
2023-04-24T02:17:54.668Z,98172.63
2023-04-24T02:23:03.213Z,98167.99
2023-04-24T02:28:10.742Z,98163.00
2023-04-24T02:33:18.097Z,98158.35
2023-04-24T02:38:25.694Z,98146.00
2023-04-24T02:43:33.380Z,98140.36
2023-04-24T02:48:40.940Z,98140.15
2023-04-24T02:53:48.719Z,98135.95
2023-04-24T02:58:56.430Z,98132.23
2023-04-24T03:04:04.062Z,98129.09
2023-04-24T03:09:14.008Z,98133.42
2023-04-24T03:14:21.613Z,98132.78
2023-04-24T03:22:13.575Z,98135.41
2023-04-24T03:27:21.297Z,98131.13
2023-04-24T03:32:29.313Z,98131.15
2023-04-24T03:37:37.063Z,98130.08
2023-04-24T03:42:44.809Z,98131.31
2023-04-24T03:47:52.203Z,98131.14
2023-04-24T03:53:01.661Z,98132.29
2023-04-24T03:58:09.429Z,98132.34
2023-04-24T04:03:17.857Z,98132.06
2023-04-24T04:08:25.673Z,98135.02
2023-04-24T04:13:33.190Z,98131.77
2023-04-24T04:18:40.579Z,98131.85
2023-04-24T04:23:48.172Z,98132.87
2023-04-24T04:28:55.767Z,98132.46
2023-04-24T04:34:05.186Z,98124.15
2023-04-24T04:39:12.553Z,98122.40
2023-04-24T04:44:19.976Z,98123.17
2023-04-24T04:49:29.927Z,98122.81
2023-04-24T04:54:37.745Z,98121.73
2023-04-24T04:59:45.605Z,98121.34
2023-04-24T05:04:54.671Z,98119.52
2023-04-24T05:10:02.478Z,98126.59
2023-04-24T05:15:11.478Z,98127.23
2023-04-24T05:20:19.256Z,98124.45
2023-04-24T05:25:26.822Z,98122.77
2023-04-24T05:30:36.532Z,98121.20
2023-04-24T05:35:49.681Z,98120.00
2023-04-24T05:40:56.976Z,98127.22
2023-04-24T05:46:04.493Z,98124.09
2023-04-24T05:53:23.278Z,98121.70
2023-04-24T05:58:31.306Z,98122.65
2023-04-24T06:03:39.312Z,98116.23
2023-04-24T06:08:46.806Z,98110.91
2023-04-24T06:13:54.370Z,98111.02
2023-04-24T06:19:01.624Z,98110.80
2023-04-24T06:24:09.055Z,98107.36
2023-04-24T06:29:16.408Z,98102.29
2023-04-24T06:34:24.438Z,98100.89
2023-04-24T06:39:31.725Z,98096.38
2023-04-24T06:44:42.242Z,98092.80
2023-04-24T06:54:39.819Z,98087.12
2023-04-24T06:59:47.279Z,98084.09
2023-04-24T07:04:55.196Z,98083.77
2023-04-24T07:10:03.015Z,98078.48
2023-04-24T07:15:13.108Z,98075.46
2023-04-24T07:20:20.698Z,98072.44
2023-04-24T07:25:28.320Z,98067.14
2023-04-24T07:30:35.598Z,98062.98
2023-04-24T07:35:43.440Z,98059.09
2023-04-24T07:40:50.566Z,98054.27
2023-04-24T07:45:57.988Z,98052.13
2023-04-24T07:51:05.570Z,98048.30
2023-04-24T07:56:13.276Z,98047.05
2023-04-24T08:01:20.586Z,98042.89
2023-04-24T08:06:31.672Z,98035.16
2023-04-24T08:11:39.286Z,98032.11
2023-04-24T08:16:46.473Z,98028.36
2023-04-24T08:21:53.793Z,98023.94
2023-04-24T08:27:02.624Z,98016.91
2023-04-24T08:32:09.982Z,98016.98
2023-04-24T08:37:17.490Z,98014.34
2023-04-24T08:42:25.561Z,98012.68
2023-04-24T08:47:34.886Z,98006.81
2023-04-24T08:52:44.516Z,98006.98
2023-04-24T08:57:55.519Z,98004.59
2023-04-24T09:03:07.275Z,97998.96
2023-04-24T09:08:15.171Z,97996.34
2023-04-24T09:13:23.122Z,97993.13
2023-04-24T09:18:30.203Z,97987.56
2023-04-24T09:23:37.658Z,97984.45
2023-04-24T09:28:45.446Z,97974.85
2023-04-24T09:34:02.032Z,97973.70
2023-04-24T09:39:12.087Z,97967.44
2023-04-24T09:44:21.260Z,97961.07
2023-04-24T09:49:31.386Z,97961.55
2023-04-24T09:54:39.829Z,97955.68
2023-04-24T10:05:40.210Z,97948.54
2023-04-24T10:10:46.328Z,97938.50
2023-04-24T10:15:51.111Z,97933.92
2023-04-24T10:20:56.277Z,97930.16
2023-04-24T10:26:01.509Z,97928.63
2023-04-24T10:31:06.608Z,97926.61
2023-04-24T10:36:12.408Z,97924.74
2023-04-24T10:41:21.282Z,97928.08
2023-04-24T10:46:31.256Z,97926.77
2023-04-24T10:51:50.064Z,97924.27
2023-04-24T10:56:54.751Z,97917.24
2023-04-24T11:01:59.068Z,97905.47
2023-04-24T11:07:05.093Z,97908.18
2023-04-24T11:12:09.869Z,97901.77
2023-04-24T11:17:33.641Z,97901.31
2023-04-24T11:22:40.437Z,97899.83
2023-04-24T11:27:47.076Z,97896.48
2023-04-24T11:32:53.386Z,97891.86
2023-04-24T11:43:07.896Z,97889.01
2023-04-24T11:48:12.278Z,97882.08
2023-04-24T11:53:16.786Z,97874.36
2023-04-24T11:58:23.688Z,97872.55
2023-04-24T12:03:30.007Z,97862.55
2023-04-24T12:08:36.030Z,97858.10
2023-04-24T12:13:42.058Z,97856.09
2023-04-24T12:18:47.071Z,97851.27
2023-04-24T12:23:51.893Z,97847.71
2023-04-24T12:28:57.062Z,97841.85
2023-04-24T12:34:01.221Z,97835.91
2023-04-24T12:39:17.076Z,97834.21
2023-04-24T12:44:21.197Z,97833.58
2023-04-24T12:49:25.484Z,97829.74
2023-04-24T12:54:34.700Z,97846.25
2023-04-24T12:59:40.361Z,97854.72
2023-04-24T13:04:44.843Z,97853.85
2023-04-24T13:09:51.050Z,97856.42
2023-04-24T13:14:56.263Z,97853.06
2023-04-24T13:20:00.456Z,97850.35
2023-04-24T13:25:08.065Z,97849.95
2023-04-24T13:30:14.374Z,97854.29
2023-04-24T13:35:19.173Z,97858.45
2023-04-24T13:40:23.110Z,97859.96
2023-04-24T13:45:27.940Z,97862.30
2023-04-24T13:50:32.185Z,97868.39
2023-04-24T13:55:36.297Z,97870.11
2023-04-24T14:00:41.505Z,97875.30
2023-04-24T14:05:45.808Z,97881.30
2023-04-24T14:10:50.127Z,97883.87
2023-04-24T14:15:54.328Z,97882.29
2023-04-24T14:20:58.732Z,97888.20
2023-04-24T14:26:03.416Z,97892.55
2023-04-24T14:31:07.943Z,97895.30
2023-04-24T14:36:12.392Z,97899.06
2023-04-24T14:41:16.632Z,97899.52
2023-04-24T14:46:21.243Z,97901.70
2023-04-24T14:54:39.910Z,97900.02
2023-04-24T14:59:47.222Z,97902.89
2023-04-24T15:04:54.672Z,97899.13
2023-04-24T15:10:02.105Z,97900.09
2023-04-24T15:15:12.786Z,97901.27
2023-04-24T15:20:20.541Z,97901.73
2023-04-24T15:25:28.345Z,97900.75
2023-04-24T15:30:36.222Z,97903.73
2023-04-24T15:35:44.017Z,97906.44
2023-04-24T15:40:51.180Z,97905.14
2023-04-24T15:46:00.234Z,97904.77
2023-04-24T15:51:07.733Z,97901.80
2023-04-24T15:56:14.945Z,97905.82
2023-04-24T16:01:22.392Z,97909.95
2023-04-24T16:06:29.695Z,97911.54
2023-04-24T16:11:39.847Z,97915.92
2023-04-24T16:16:47.435Z,97919.12
2023-04-24T16:21:56.581Z,97920.82
2023-04-24T16:27:04.089Z,97916.49
2023-04-24T16:32:12.161Z,97908.77
2023-04-24T16:37:19.623Z,97914.55
2023-04-24T16:42:27.233Z,97910.11
2023-04-24T16:47:34.810Z,97910.02
2023-04-24T16:52:44.197Z,97911.56
2023-04-24T16:57:51.615Z,97913.01
2023-04-24T17:02:59.325Z,97916.87
2023-04-24T17:08:06.842Z,97912.36
2023-04-24T17:13:15.359Z,97911.34
2023-04-24T17:21:11.427Z,97912.75
2023-04-24T17:26:19.720Z,97913.61
2023-04-24T17:31:26.860Z,97914.80
2023-04-24T17:36:34.560Z,97920.92
2023-04-24T17:41:42.970Z,97919.16
2023-04-24T17:46:50.719Z,97918.25
2023-04-24T17:51:58.233Z,97913.52
2023-04-24T17:57:05.938Z,97909.73
2023-04-24T18:02:13.760Z,97912.49
2023-04-24T18:07:21.157Z,97921.40
2023-04-24T18:12:28.346Z,97925.60
2023-04-24T18:17:35.750Z,97934.02
2023-04-24T18:22:44.022Z,97938.28
2023-04-24T18:27:51.312Z,97937.45
2023-04-24T18:32:58.648Z,97936.80
2023-04-24T18:38:06.552Z,97938.14
2023-04-24T18:43:14.140Z,97942.82
2023-04-24T18:48:21.328Z,97943.85
2023-04-24T18:53:29.161Z,97949.55
2023-04-24T18:58:36.562Z,97948.95
2023-04-24T19:03:43.886Z,97950.33
2023-04-24T19:08:52.145Z,97954.88
2023-04-24T19:14:03.321Z,97957.36
2023-04-24T19:19:11.528Z,97957.61
2023-04-24T19:24:19.363Z,97955.65
2023-04-24T19:29:26.812Z,97953.55
2023-04-24T19:34:34.859Z,97953.06
2023-04-24T19:39:42.509Z,97950.35
2023-04-24T19:44:49.659Z,97948.39
2023-04-24T19:49:57.330Z,97948.89
2023-04-24T19:55:04.943Z,97948.23
2023-04-24T20:00:14.750Z,97945.85
2023-04-24T20:05:22.241Z,97944.34
2023-04-24T20:10:30.069Z,97940.60
2023-04-24T20:15:37.494Z,97936.83
2023-04-24T20:20:44.920Z,97940.05
2023-04-24T20:25:58.434Z,97940.61
2023-04-24T20:31:06.611Z,97944.79
2023-04-24T20:36:14.014Z,97944.20
2023-04-24T20:41:21.331Z,97948.73
2023-04-24T20:46:28.867Z,97948.89
2023-04-24T20:51:37.348Z,97944.23
2023-04-24T20:56:46.093Z,97943.23
2023-04-24T21:01:53.658Z,97944.73
2023-04-24T21:07:01.213Z,97937.42
2023-04-24T21:12:11.994Z,97941.76
2023-04-24T21:17:19.403Z,97942.48
2023-04-24T21:22:26.825Z,97942.13
2023-04-24T21:27:34.758Z,97941.25
2023-04-24T21:32:42.474Z,97942.52
2023-04-24T21:37:49.943Z,97938.53
2023-04-24T21:42:57.996Z,97932.78
2023-04-24T21:48:05.311Z,97935.90
2023-04-24T21:53:12.818Z,97934.17
2023-04-24T22:04:25.829Z,97927.55
2023-04-24T22:09:30.261Z,97923.92
2023-04-24T22:14:34.550Z,97924.81
2023-04-24T22:19:41.914Z,97927.32
2023-04-24T22:24:47.201Z,97924.17
2023-04-24T22:29:51.687Z,97925.23
2023-04-24T22:34:56.060Z,97923.77
2023-04-24T22:40:01.046Z,97923.09
2023-04-24T22:45:09.832Z,97919.70
2023-04-24T22:50:15.313Z,97918.48
2023-04-24T22:55:20.905Z,97916.33
2023-04-24T23:00:25.870Z,97914.20
2023-04-24T23:05:30.930Z,97907.15
2023-04-24T23:10:35.008Z,97905.19
2023-04-24T23:15:39.490Z,97901.83
2023-04-24T23:20:43.640Z,97896.34
2023-04-24T23:25:47.663Z,97889.77
2023-04-24T23:30:51.914Z,97887.63
2023-04-24T23:35:55.965Z,97882.49
2023-04-24T23:41:00.663Z,97882.88
2023-04-24T23:46:04.924Z,97880.92
2023-04-24T23:51:08.950Z,97880.23
2023-04-24T23:56:12.823Z,97872.80
